Time;durP1;ratioP1;P1;durP2;ratioP2;P2;SDS_P1;SDS_P2;PMS_P1;PMS_P2;Temp;Humidity;BMP_temperature;BMP_pressure;BME280_temperature;BME280_humidity;BME280_pressure;Samples;Min_cycle;Max_cycle;Signal;HPM_P1;HPM_P2
2022/01/09 00:01:01;;;;;;;116.85;59.45;;;;;;;-2.45;100.00;98062.91;2104804;28;20221;-76
2022/01/09 00:02:03;;;;;;;122.20;57.38;;;;;;;-2.43;100.00;98057.44;2105090;28;20290;-76
2022/01/09 00:03:05;;;;;;;128.57;59.47;;;;;;;-2.44;100.00;98048.03;2105732;28;20231;-76
2022/01/09 00:04:06;;;;;;;117.43;59.60;;;;;;;-2.40;100.00;98062.22;2104845;28;20228;-76
2022/01/09 00:05:08;;;;;;;124.88;58.90;;;;;;;-2.39;100.00;98058.56;2104413;28;20222;-77
2022/01/09 00:06:10;;;;;;;135.77;61.50;;;;;;;-2.36;100.00;98058.88;2105624;28;20252;-76
2022/01/09 00:07:16;;;;;;;125.28;62.10;;;;;;;-2.37;100.00;98052.06;2105406;28;20221;-76
2022/01/09 00:08:19;;;;;;;121.57;60.50;;;;;;;-2.32;100.00;98060.00;2105720;28;20221;-76
2022/01/09 00:09:21;;;;;;;126.50;60.22;;;;;;;-2.33;100.00;98057.63;2105604;28;20232;-76
2022/01/09 00:10:23;;;;;;;122.75;60.65;;;;;;;-2.31;100.00;98051.13;2104521;28;20316;-76
2022/01/09 00:11:26;;;;;;;133.95;60.92;;;;;;;-2.28;100.00;98055.88;2105030;28;20233;-76
2022/01/09 00:12:28;;;;;;;132.05;61.40;;;;;;;-2.22;100.00;98055.97;2105594;28;20233;-76
2022/01/09 00:13:28;;;;;;;130.55;62.03;;;;;;;-2.24;100.00;98055.44;2105646;28;20273;-76
2022/01/09 00:14:31;;;;;;;124.37;59.77;;;;;;;-2.21;100.00;98049.72;2104865;28;20322;-76
2022/01/09 00:15:34;;;;;;;127.97;61.38;;;;;;;-2.18;100.00;98057.84;2096403;28;20229;-76
2022/01/09 00:16:36;;;;;;;123.68;59.03;;;;;;;-2.17;100.00;98056.84;2096610;28;20574;-76
2022/01/09 00:17:37;;;;;;;122.63;59.97;;;;;;;-2.13;100.00;98046.69;2104668;28;20213;-76
2022/01/09 00:18:39;;;;;;;120.65;59.97;;;;;;;-2.12;100.00;98048.28;2105511;28;20228;-76
2022/01/09 00:19:40;;;;;;;131.55;61.78;;;;;;;-2.08;100.00;98054.63;2104876;28;20225;-76
2022/01/09 00:20:41;;;;;;;127.60;60.93;;;;;;;-2.07;100.00;98049.16;2104934;28;20245;-76
2022/01/09 00:21:48;;;;;;;116.13;58.67;;;;;;;-2.05;100.00;98046.31;2096468;28;20605;-76
2022/01/09 00:22:52;;;;;;;127.93;58.95;;;;;;;-2.02;100.00;98053.66;2097111;28;20582;-76
2022/01/09 00:23:53;;;;;;;131.68;61.65;;;;;;;-2.01;100.00;98050.00;2096328;28;20225;-76
2022/01/09 00:24:54;;;;;;;126.20;60.53;;;;;;;-2.04;100.00;98046.06;2104896;28;20249;-76
2022/01/09 00:25:55;;;;;;;120.57;59.03;;;;;;;-2.04;100.00;98040.84;2105666;28;20228;-77
2022/01/09 00:26:57;;;;;;;117.53;59.17;;;;;;;-2.04;100.00;98040.03;2104705;28;20682;-76
2022/01/09 00:28:01;;;;;;;122.35;59.70;;;;;;;-2.03;100.00;98045.03;2104795;28;20700;-76
2022/01/09 00:29:06;;;;;;;119.00;58.70;;;;;;;-2.02;100.00;98038.75;2104977;28;20237;-76
2022/01/09 00:30:11;;;;;;;114.43;56.47;;;;;;;-2.00;100.00;98041.13;2104123;28;20308;-76
2022/01/09 00:31:13;;;;;;;126.18;58.80;;;;;;;-1.98;100.00;98039.09;2104834;28;20239;-76
2022/01/09 00:32:14;;;;;;;130.45;60.50;;;;;;;-1.96;100.00;98047.47;2104548;28;20221;-76
2022/01/09 00:33:15;;;;;;;129.00;60.17;;;;;;;-1.96;100.00;98042.25;2096245;28;20242;-76
2022/01/09 00:34:16;;;;;;;130.70;60.67;;;;;;;-1.98;100.00;98033.88;2096547;28;20688;-76
2022/01/09 00:35:18;;;;;;;129.70;61.30;;;;;;;-1.97;100.00;98038.06;2104654;28;20560;-76
2022/01/09 00:36:21;;;;;;;131.15;61.22;;;;;;;-1.97;100.00;98034.66;2103753;28;20459;-76
2022/01/09 00:37:23;;;;;;;133.00;63.40;;;;;;;-1.97;100.00;98030.22;2095903;28;20275;-76
2022/01/09 00:38:26;;;;;;;139.50;65.65;;;;;;;-1.97;100.00;98032.03;2104744;28;20240;-76
2022/01/09 00:39:27;;;;;;;134.82;64.05;;;;;;;-1.98;100.00;98033.06;2105267;28;20237;-76
2022/01/09 00:40:28;;;;;;;132.43;63.43;;;;;;;-2.04;100.00;98019.13;2105422;28;20226;-76
2022/01/09 00:41:31;;;;;;;149.60;70.65;;;;;;;-2.01;100.00;98018.66;2104686;28;20221;-76
2022/01/09 00:42:36;;;;;;;143.65;69.32;;;;;;;-2.03;100.00;98013.66;2096308;28;20309;-76
2022/01/09 00:43:39;;;;;;;158.68;73.43;;;;;;;-2.08;100.00;98004.97;2096091;28;20729;-76
2022/01/09 00:44:40;;;;;;;139.32;70.05;;;;;;;-2.07;100.00;98009.19;2096411;28;20232;-76
2022/01/09 00:45:42;;;;;;;144.13;69.40;;;;;;;-2.08;100.00;98004.97;2096287;28;20222;-77
2022/01/09 00:46:43;;;;;;;139.88;70.25;;;;;;;-2.11;100.00;98002.81;2096479;28;20214;-77
2022/01/09 00:47:45;;;;;;;131.77;62.53;;;;;;;-2.16;100.00;98005.38;2096374;28;20222;-77
2022/01/09 00:48:48;;;;;;;127.40;64.93;;;;;;;-2.22;100.00;98012.34;2104705;28;20225;-77
2022/01/09 00:49:52;;;;;;;133.60;63.53;;;;;;;-2.27;100.00;98002.59;2104213;28;20274;-77
2022/01/09 00:50:53;;;;;;;135.18;62.85;;;;;;;-2.31;100.00;97998.91;2104271;28;20273;-76
2022/01/09 00:51:55;;;;;;;130.23;62.22;;;;;;;-2.34;100.00;97999.38;2105378;28;20225;-77
2022/01/09 00:52:56;;;;;;;122.82;63.08;;;;;;;-2.38;100.00;98003.47;2104523;28;20221;-76
2022/01/09 00:53:59;;;;;;;129.40;61.17;;;;;;;-2.42;100.00;97999.78;2096291;28;20229;-76
2022/01/09 00:55:00;;;;;;;121.47;61.42;;;;;;;-2.47;100.00;97999.69;2096363;28;20775;-76
2022/01/09 00:56:03;;;;;;;131.03;63.57;;;;;;;-2.50;100.00;97994.97;2104784;28;20615;-76
2022/01/09 00:57:05;;;;;;;133.85;64.78;;;;;;;-2.53;100.00;97998.03;2105496;28;20229;-76
2022/01/09 00:58:07;;;;;;;130.02;62.83;;;;;;;-2.58;100.00;97990.13;2105295;28;20228;-76
2022/01/09 00:59:07;;;;;;;132.27;62.95;;;;;;;-2.60;100.00;97992.97;2104413;28;20228;-76
2022/01/09 01:00:10;;;;;;;123.03;63.03;;;;;;;-2.63;100.00;97990.81;2104657;28;20235;-76
2022/01/09 01:01:12;;;;;;;126.85;61.63;;;;;;;-2.70;100.00;97992.78;2104307;28;20221;-76
2022/01/09 01:02:16;;;;;;;129.27;62.05;;;;;;;-2.70;100.00;97989.38;2096146;28;20226;-77
2022/01/09 01:03:19;;;;;;;126.80;63.47;;;;;;;-2.73;100.00;98001.09;2095986;28;20218;-76
2022/01/09 01:04:20;;;;;;;133.27;66.10;;;;;;;-2.78;100.00;97988.00;2104653;28;20224;-76
2022/01/09 01:05:22;;;;;;;140.00;64.63;;;;;;;-2.79;100.00;97993.41;2105121;28;20217;-76
2022/01/09 01:06:22;;;;;;;142.02;67.00;;;;;;;-2.83;100.00;97992.31;2104885;28;20221;-76
2022/01/09 01:07:24;;;;;;;130.70;64.57;;;;;;;-2.87;100.00;97984.16;2105260;28;20304;-77
2022/01/09 01:08:25;;;;;;;137.10;63.95;;;;;;;-2.89;100.00;97978.38;2105370;28;20590;-76
2022/01/09 01:09:31;;;;;;;131.67;63.50;;;;;;;-2.91;100.00;97981.22;2105151;28;20222;-76
2022/01/09 01:10:34;;;;;;;136.85;63.97;;;;;;;-2.92;100.00;97984.09;2105369;28;20224;-76
2022/01/09 01:11:35;;;;;;;133.75;66.60;;;;;;;-2.94;100.00;97986.16;2105290;28;20718;-76
2022/01/09 01:12:37;;;;;;;137.90;64.93;;;;;;;-2.97;100.00;97978.78;2104554;28;20651;-76
2022/01/09 01:13:38;;;;;;;131.20;67.03;;;;;;;-3.00;100.00;97974.81;2095698;28;20456;-76
2022/01/09 01:14:39;;;;;;;143.50;68.20;;;;;;;-3.03;100.00;97975.31;2096200;28;20738;-76
2022/01/09 01:15:40;;;;;;;138.95;66.05;;;;;;;-3.03;100.00;97974.50;2104318;28;20348;-76
2022/01/09 01:16:42;;;;;;;124.17;65.73;;;;;;;-3.09;100.00;97965.78;2104562;28;20229;-76
2022/01/09 01:17:45;;;;;;;149.50;71.60;;;;;;;-3.07;100.00;97971.56;2105366;28;20584;-76
2022/01/09 01:18:47;;;;;;;145.45;68.60;;;;;;;-3.10;100.00;97972.03;2105194;28;20225;-76
2022/01/09 01:19:49;;;;;;;142.15;68.03;;;;;;;-3.11;100.00;97969.66;2104714;28;20217;-76
2022/01/09 01:20:50;;;;;;;141.10;67.03;;;;;;;-3.16;100.00;97968.53;2095972;28;20238;-77
2022/01/09 01:21:51;;;;;;;144.53;66.27;;;;;;;-3.17;100.00;97961.75;2104479;28;20271;-77
2022/01/09 01:22:57;;;;;;;153.55;67.97;;;;;;;-3.19;100.00;97963.00;2104187;28;20679;-76
2022/01/09 01:24:00;;;;;;;142.93;66.25;;;;;;;-3.17;100.00;97968.78;2096676;28;20218;-77
2022/01/09 01:25:05;;;;;;;140.63;67.30;;;;;;;-3.22;100.00;97966.06;2104645;28;20573;-77
2022/01/09 01:26:05;;;;;;;143.63;67.13;;;;;;;-3.22;100.00;97969.47;2105324;28;20223;-76
2022/01/09 01:27:07;;;;;;;139.50;68.57;;;;;;;-3.23;100.00;97970.50;2104340;28;20222;-77
2022/01/09 01:28:08;;;;;;;156.07;71.90;;;;;;;-3.23;100.00;97961.88;2104005;28;20558;-77
2022/01/09 01:29:10;;;;;;;137.90;68.20;;;;;;;-3.27;100.00;97958.97;2104432;28;20257;-77
2022/01/09 01:30:12;;;;;;;128.38;65.65;;;;;;;-3.24;100.00;97962.91;2096310;28;20256;-76
2022/01/09 01:31:14;;;;;;;132.05;68.05;;;;;;;-3.25;100.00;97956.91;2104358;28;20220;-76
2022/01/09 01:32:15;;;;;;;146.65;69.20;;;;;;;-3.27;100.00;97958.97;2105678;28;20221;-76
2022/01/09 01:33:17;;;;;;;140.13;69.10;;;;;;;-3.28;100.00;97957.38;2104050;28;20221;-77
2022/01/09 01:34:18;;;;;;;140.20;66.72;;;;;;;-3.25;100.00;97967.34;2095884;28;20218;-77
2022/01/09 01:35:20;;;;;;;140.03;65.27;;;;;;;-3.25;100.00;97966.53;2104481;28;20300;-76
2022/01/09 01:36:20;;;;;;;127.97;63.38;;;;;;;-3.24;100.00;97971.53;2105131;28;20224;-76
2022/01/09 01:37:23;;;;;;;133.00;64.93;;;;;;;-3.25;100.00;97956.91;2104148;28;20753;-76
2022/01/09 01:38:27;;;;;;;133.25;64.40;;;;;;;-3.25;100.00;97961.34;2095909;28;20656;-76
2022/01/09 01:39:28;;;;;;;144.95;64.90;;;;;;;-3.27;100.00;97961.56;2096237;28;20218;-76
2022/01/09 01:40:32;;;;;;;136.15;63.22;;;;;;;-3.25;100.00;97958.72;2094954;28;20761;-76
2022/01/09 01:41:33;;;;;;;117.38;61.38;;;;;;;-3.24;100.00;97957.69;2104319;28;20224;-76
2022/01/09 01:42:34;;;;;;;124.13;63.33;;;;;;;-3.23;100.00;97954.06;2104574;28;20308;-76
2022/01/09 01:43:36;;;;;;;136.52;63.30;;;;;;;-3.23;100.00;97948.84;2104437;28;20232;-76
2022/01/09 01:44:42;;;;;;;143.30;66.82;;;;;;;-3.21;100.00;97952.03;2104733;28;20347;-76
2022/01/09 01:45:44;;;;;;;128.05;65.82;;;;;;;-3.18;100.00;97952.34;2104240;28;20217;-76
2022/01/09 01:46:46;;;;;;;125.60;65.18;;;;;;;-3.15;100.00;97945.84;2104352;28;20221;-76
2022/01/09 01:47:47;;;;;;;136.13;64.90;;;;;;;-3.15;100.00;97946.66;2104401;28;20217;-76
2022/01/09 01:48:48;;;;;;;117.25;58.50;;;;;;;-3.11;100.00;97946.97;2095904;28;20226;-76
2022/01/09 01:49:50;;;;;;;118.63;58.20;;;;;;;-3.06;100.00;97944.44;2104303;28;20229;-75
2022/01/09 01:50:51;;;;;;;112.90;57.65;;;;;;;-3.04;100.00;97947.63;2105166;28;20250;-75
2022/01/09 01:51:54;;;;;;;126.07;61.47;;;;;;;-3.03;100.00;97954.44;2104714;28;20667;-75
2022/01/09 01:52:57;;;;;;;116.57;59.58;;;;;;;-3.03;100.00;97948.41;2104181;28;20241;-76
2022/01/09 01:53:59;;;;;;;123.40;56.70;;;;;;;-3.04;100.00;97937.19;2104450;28;20224;-75
2022/01/09 01:55:01;;;;;;;121.63;58.42;;;;;;;-2.97;100.00;97948.25;2104494;28;20268;-75
2022/01/09 01:56:04;;;;;;;126.70;61.42;;;;;;;-2.98;100.00;97938.84;2104338;28;20213;-76
2022/01/09 01:57:06;;;;;;;121.05;60.63;;;;;;;-2.94;100.00;97939.97;2104947;28;20217;-75
2022/01/09 01:58:10;;;;;;;128.98;64.10;;;;;;;-2.94;100.00;97937.34;2104730;28;20221;-76
2022/01/09 01:59:13;;;;;;;119.40;58.70;;;;;;;-2.95;100.00;97932.38;2105136;28;20279;-76
2022/01/09 02:00:20;;;;;;;118.88;59.00;;;;;;;-2.93;100.00;97928.50;2104197;28;20244;-76
2022/01/09 02:01:21;;;;;;;122.60;61.55;;;;;;;-2.92;100.00;97929.28;2096760;28;20272;-76
2022/01/09 02:02:25;;;;;;;129.10;60.90;;;;;;;-2.88;100.00;97927.78;2103916;28;20676;-76
2022/01/09 02:03:27;;;;;;;117.90;56.90;;;;;;;-2.89;100.00;97924.38;2105241;28;20314;-76
2022/01/09 02:04:28;;;;;;;131.65;61.25;;;;;;;-2.89;100.00;97924.38;2105045;28;20214;-76
2022/01/09 02:05:30;;;;;;;119.17;58.43;;;;;;;-2.83;100.00;97924.47;2104186;28;20300;-76
2022/01/09 02:06:34;;;;;;;121.50;62.03;;;;;;;-2.83;100.00;97922.66;2104239;28;20245;-76
2022/01/09 02:07:38;;;;;;;123.15;58.20;;;;;;;-2.82;100.00;97923.44;2104420;28;20691;-75
2022/01/09 02:08:39;;;;;;;108.65;56.28;;;;;;;-2.78;100.00;97924.53;2104731;28;20584;-75
2022/01/09 02:09:40;;;;;;;118.60;57.53;;;;;;;-2.76;100.00;97932.94;2103897;28;20241;-76
2022/01/09 02:10:42;;;;;;;122.03;58.15;;;;;;;-2.75;100.00;97924.88;2095992;28;20241;-76
2022/01/09 02:11:47;;;;;;;110.90;56.20;;;;;;;-2.71;100.00;97930.38;2096075;28;20218;-76
2022/01/09 02:12:51;;;;;;;117.22;57.97;;;;;;;-2.67;100.00;97921.06;2104340;28;20692;-76
2022/01/09 02:13:53;;;;;;;120.65;58.50;;;;;;;-2.60;100.00;97911.25;2104593;28;20221;-76
2022/01/09 02:14:54;;;;;;;127.35;59.25;;;;;;;-2.55;100.00;97919.16;2105469;28;20218;-76
2022/01/09 02:15:59;;;;;;;130.33;59.30;;;;;;;-2.54;100.00;97914.72;2097360;28;20226;-76
2022/01/09 02:17:00;;;;;;;116.82;57.15;;;;;;;-2.51;100.00;97920.25;2097697;28;20261;-76
2022/01/09 02:18:03;;;;;;;121.53;56.60;;;;;;;-2.52;100.00;97912.66;2097721;28;20228;-76
2022/01/09 02:19:05;;;;;;;115.57;55.72;;;;;;;-2.51;100.00;97909.03;2105847;28;20224;-75
2022/01/09 02:20:12;;;;;;;116.50;55.35;;;;;;;-2.47;100.00;97915.34;2106153;28;20251;-75
2022/01/09 02:21:15;;;;;;;112.57;55.08;;;;;;;-2.46;100.00;97915.09;2105762;28;20217;-76
2022/01/09 02:22:16;;;;;;;121.35;55.97;;;;;;;-2.45;100.00;97908.06;2097555;28;20214;-76
2022/01/09 02:23:19;;;;;;;114.77;57.33;;;;;;;-2.48;100.00;97906.72;2097416;28;20651;-75
2022/01/09 02:24:23;;;;;;;123.50;58.20;;;;;;;-2.47;100.00;97900.47;2097552;28;20232;-75
2022/01/09 02:25:26;;;;;;;115.32;58.35;;;;;;;-2.47;100.00;97903.06;2105548;28;20225;-75
2022/01/09 02:26:29;;;;;;;132.05;58.65;;;;;;;-2.48;100.00;97906.72;2105643;28;20225;-76
2022/01/09 02:27:30;;;;;;;118.43;57.63;;;;;;;-2.50;100.00;97894.94;2097623;28;20267;-75
2022/01/09 02:28:34;;;;;;;110.47;57.65;;;;;;;-2.50;100.00;97895.72;2097856;28;20218;-75
2022/01/09 02:29:35;;;;;;;115.80;56.42;;;;;;;-2.52;100.00;97894.38;2105783;28;20218;-76
2022/01/09 02:30:37;;;;;;;121.67;60.90;;;;;;;-2.48;100.00;97904.09;2106401;28;20322;-75
2022/01/09 02:31:39;;;;;;;119.72;58.20;;;;;;;-2.49;100.00;97904.34;2105277;28;20218;-75
2022/01/09 02:32:40;;;;;;;112.07;59.42;;;;;;;-2.52;100.00;97899.59;2097217;28;20696;-75
2022/01/09 02:33:42;;;;;;;115.97;57.47;;;;;;;-2.53;100.00;97898.00;2105607;28;20225;-77
2022/01/09 02:34:50;;;;;;;112.00;58.63;;;;;;;-2.54;100.00;97899.84;2105625;28;20221;-74
2022/01/09 02:35:54;;;;;;;107.85;56.03;;;;;;;-2.51;100.00;97901.97;2098064;28;20325;-76
2022/01/09 02:36:54;;;;;;;114.70;57.80;;;;;;;-2.52;100.00;97896.97;2097119;28;20669;-75
2022/01/09 02:37:56;;;;;;;121.87;59.67;;;;;;;-2.51;100.00;97907.22;2105694;28;20648;-76
2022/01/09 02:38:57;;;;;;;121.00;59.78;;;;;;;-2.52;100.00;97902.19;2105588;28;20229;-75
2022/01/09 02:39:59;;;;;;;124.00;60.70;;;;;;;-2.52;100.00;97902.19;2097509;28;20217;-76
2022/01/09 02:41:04;;;;;;;119.95;58.97;;;;;;;-2.52;100.00;97903.00;2105753;28;20218;-75
2022/01/09 02:42:18;;;;;;;128.32;59.58;;;;;;;-2.55;100.00;97890.41;2105688;28;20237;-76
2022/01/09 02:43:21;;;;;;;125.50;57.42;;;;;;;-2.52;100.00;97897.78;2098708;28;20608;-76
2022/01/09 02:44:22;;;;;;;123.28;57.67;;;;;;;-2.52;100.00;97883.94;2105364;28;20699;-77
2022/01/09 02:45:25;;;;;;;115.97;58.80;;;;;;;-2.50;100.00;97897.56;2106192;28;20312;-76
2022/01/09 02:46:41;;;;;;;112.13;57.67;;;;;;;-2.56;100.00;97894.84;2106317;28;20747;-76
2022/01/09 02:47:43;;;;;;;117.43;56.03;;;;;;;-2.53;100.00;97898.81;2105183;28;20621;-76
2022/01/09 02:48:46;;;;;;;120.55;61.22;;;;;;;-2.54;100.00;97889.38;2097153;28;20230;-76
2022/01/09 02:49:47;;;;;;;128.27;58.88;;;;;;;-2.57;100.00;97890.66;2105550;28;20225;-76
2022/01/09 02:51:00;;;;;;;113.50;59.13;;;;;;;-2.55;100.00;97898.25;2105585;28;20218;-76
2022/01/09 02:52:09;;;;;;;119.43;57.40;;;;;;;-2.54;100.00;97891.22;2105250;28;20220;-77
2022/01/09 02:53:15;;;;;;;115.43;54.28;;;;;;;-2.53;100.00;97893.59;2105842;28;20225;-77
2022/01/09 02:55:33;;;;;;;118.50;54.15;;;;;;;-2.46;100.00;97893.41;2065690;28;20233;-76
2022/01/09 02:56:34;;;;;;;113.88;55.28;;;;;;;-2.46;100.00;97890.81;2087363;28;20228;-76
2022/01/09 02:57:36;;;;;;;118.18;55.95;;;;;;;-2.48;100.00;97879.81;2105512;28;20248;-76
2022/01/09 02:58:38;;;;;;;114.43;54.58;;;;;;;-2.42;100.00;97884.88;2106115;28;20224;-76
2022/01/09 02:59:39;;;;;;;116.47;56.05;;;;;;;-2.38;100.00;97887.78;2106210;28;20221;-76
2022/01/09 03:00:44;;;;;;;113.83;54.80;;;;;;;-2.36;100.00;97885.72;2106340;28;20233;-76
2022/01/09 03:01:45;;;;;;;121.55;59.22;;;;;;;-2.37;100.00;97876.31;2106206;28;20230;-76
2022/01/09 03:02:50;;;;;;;112.78;56.08;;;;;;;-2.39;100.00;97881.78;2106054;28;20270;-76
2022/01/09 03:03:50;;;;;;;113.72;55.22;;;;;;;-2.37;100.00;97879.69;2106102;28;20217;-76
2022/01/09 03:04:52;;;;;;;122.53;57.50;;;;;;;-2.38;100.00;97875.50;2106167;28;20304;-76
2022/01/09 03:05:54;;;;;;;116.18;55.28;;;;;;;-2.36;100.00;97872.66;2104986;28;20217;-76
2022/01/09 03:06:55;;;;;;;114.30;54.95;;;;;;;-2.35;100.00;97877.63;2096930;28;20234;-76
2022/01/09 03:08:00;;;;;;;111.87;56.97;;;;;;;-2.34;100.00;97868.78;2105515;28;20229;-76
2022/01/09 03:09:05;;;;;;;120.28;56.33;;;;;;;-2.33;100.00;97878.19;2105426;28;20220;-76
2022/01/09 03:10:10;;;;;;;106.38;53.80;;;;;;;-2.31;100.00;97873.53;2105049;28;20703;-77
2022/01/09 03:11:12;;;;;;;111.72;56.78;;;;;;;-2.32;100.00;97868.53;2105052;28;20232;-77
2022/01/09 03:12:13;;;;;;;114.57;57.47;;;;;;;-2.32;100.00;97865.94;2105416;28;20723;-76
2022/01/09 03:13:14;;;;;;;111.87;56.00;;;;;;;-2.32;100.00;97866.72;2105240;28;20623;-76
2022/01/09 03:14:15;;;;;;;115.07;55.63;;;;;;;-2.31;100.00;97867.50;2105501;28;20228;-76
2022/01/09 03:15:18;;;;;;;114.43;57.20;;;;;;;-2.32;100.00;97865.94;2105345;28;20229;-76
2022/01/09 03:16:20;;;;;;;109.13;55.60;;;;;;;-2.32;100.00;97876.38;2097032;28;20225;-76
2022/01/09 03:17:22;;;;;;;111.68;56.33;;;;;;;-2.32;100.00;97864.09;2105277;28;20272;-76
2022/01/09 03:18:24;;;;;;;119.78;57.75;;;;;;;-2.33;100.00;97869.56;2105746;28;20221;-76
2022/01/09 03:19:24;;;;;;;114.22;57.47;;;;;;;-2.31;100.00;97862.28;2106047;28;20228;-76
2022/01/09 03:20:27;;;;;;;121.70;58.47;;;;;;;-2.32;100.00;97861.50;2106179;28;20312;-76
2022/01/09 03:21:29;;;;;;;108.85;56.83;;;;;;;-2.31;100.00;97868.28;2105147;28;20228;-76
2022/01/09 03:22:32;;;;;;;111.50;56.00;;;;;;;-2.28;100.00;97875.63;2105398;28;20225;-76
2022/01/09 03:23:35;;;;;;;121.35;56.25;;;;;;;-2.33;100.00;97869.56;2105250;28;20222;-76
2022/01/09 03:24:36;;;;;;;103.15;56.25;;;;;;;-2.33;100.00;97870.38;2105397;28;20221;-76
2022/01/09 03:25:37;;;;;;;112.47;55.23;;;;;;;-2.35;100.00;97861.19;2104965;28;20218;-76
2022/01/09 03:26:38;;;;;;;113.18;56.78;;;;;;;-2.36;100.00;97873.44;2104369;28;20220;-76
2022/01/09 03:27:41;;;;;;;112.03;57.63;;;;;;;-2.36;100.00;97870.84;2106154;28;20300;-76
2022/01/09 03:28:42;;;;;;;110.03;56.13;;;;;;;-2.36;100.00;97876.06;2105187;28;20233;-76
2022/01/09 03:29:45;;;;;;;110.43;55.10;;;;;;;-2.37;100.00;97874.47;2097137;28;20230;-76
2022/01/09 03:30:47;;;;;;;115.05;59.47;;;;;;;-2.37;100.00;97873.69;2105226;28;20247;-76
2022/01/09 03:31:48;;;;;;;115.43;57.25;;;;;;;-2.39;100.00;97871.31;2105162;28;20221;-76
2022/01/09 03:32:51;;;;;;;113.88;55.70;;;;;;;-2.36;100.00;97872.66;2105361;28;20225;-76
2022/01/09 03:33:52;;;;;;;114.85;56.03;;;;;;;-2.38;100.00;97874.72;2105487;28;20225;-76
2022/01/09 03:34:53;;;;;;;112.97;56.13;;;;;;;-2.37;100.00;97874.47;2106007;28;20232;-76
2022/01/09 03:35:55;;;;;;;116.10;57.00;;;;;;;-2.34;100.00;97873.22;2105137;28;20233;-76
2022/01/09 03:36:56;;;;;;;118.15;53.85;;;;;;;-2.34;100.00;97868.78;2096880;28;20692;-76
2022/01/09 03:37:58;;;;;;;115.97;56.33;;;;;;;-2.32;100.00;97865.94;2105327;28;20634;-76
2022/01/09 03:39:01;;;;;;;118.47;58.03;;;;;;;-2.34;100.00;97858.34;2105805;28;20273;-76
2022/01/09 03:40:03;;;;;;;111.20;55.33;;;;;;;-2.28;100.00;97862.59;2105960;28;20221;-76
2022/01/09 03:41:05;;;;;;;118.00;56.20;;;;;;;-2.29;100.00;97866.22;2104962;28;20576;-76
2022/01/09 03:42:06;;;;;;;111.00;55.75;;;;;;;-2.28;100.00;97857.34;2096878;28;20222;-76
2022/01/09 03:43:08;;;;;;;109.60;55.10;;;;;;;-2.34;100.00;97845.28;2105125;28;20278;-76
2022/01/09 03:44:09;;;;;;;115.22;56.70;;;;;;;-2.26;100.00;97859.72;2104086;28;20312;-76
2022/01/09 03:45:11;;;;;;;111.07;55.75;;;;;;;-2.27;100.00;97842.47;2096716;28;20226;-76
2022/01/09 03:46:12;;;;;;;115.70;56.75;;;;;;;-2.28;100.00;97836.47;2105259;28;20713;-76
2022/01/09 03:47:13;;;;;;;105.43;56.00;;;;;;;-2.29;100.00;97837.50;2104936;28;20224;-76
2022/01/09 03:48:15;;;;;;;105.90;54.57;;;;;;;-2.28;100.00;97839.06;2096622;28;20771;-76
2022/01/09 03:49:16;;;;;;;117.32;58.90;;;;;;;-2.28;100.00;97841.69;2105143;28;20217;-76
2022/01/09 03:50:19;;;;;;;117.53;55.67;;;;;;;-2.28;100.00;97841.69;2105110;28;20316;-76
2022/01/09 03:51:24;;;;;;;113.03;54.88;;;;;;;-2.28;100.00;97833.06;2105174;28;20602;-76
2022/01/09 03:52:27;;;;;;;115.07;56.63;;;;;;;-2.28;100.00;97831.22;2104522;28;20262;-76
2022/01/09 03:53:30;;;;;;;110.20;55.53;;;;;;;-2.28;100.00;97830.44;2104910;28;20590;-76
2022/01/09 03:54:36;;;;;;;111.13;55.53;;;;;;;-2.32;100.00;97824.16;2105053;28;20232;-76
2022/01/09 03:55:37;;;;;;;113.72;55.58;;;;;;;-2.30;100.00;97819.47;2104318;28;20229;-76
2022/01/09 03:56:39;;;;;;;110.22;55.80;;;;;;;-2.34;100.00;97813.94;2104969;28;20251;-76
2022/01/09 03:57:41;;;;;;;121.50;57.45;;;;;;;-2.31;100.00;97817.88;2104945;28;20216;-75
2022/01/09 03:58:42;;;;;;;117.03;59.13;;;;;;;-2.32;100.00;97819.72;2096543;28;20322;-76
2022/01/09 03:59:46;;;;;;;116.90;56.73;;;;;;;-2.33;100.00;97825.19;2105096;28;20225;-75
2022/01/09 04:00:48;;;;;;;121.72;56.92;;;;;;;-2.33;100.00;97825.97;2104785;28;20459;-76
2022/01/09 04:01:48;;;;;;;112.50;55.67;;;;;;;-2.35;100.00;97825.41;2104938;28;20288;-76
2022/01/09 04:02:51;;;;;;;111.80;56.60;;;;;;;-2.38;100.00;97825.09;2105709;28;20308;-76
2022/01/09 04:03:52;;;;;;;114.65;57.70;;;;;;;-2.37;100.00;97822.25;2105251;28;20278;-76
2022/01/09 04:04:55;;;;;;;121.57;60.00;;;;;;;-2.37;100.00;97818.84;2105644;28;20675;-76
2022/01/09 04:06:00;;;;;;;122.88;58.22;;;;;;;-2.37;100.00;97816.22;2105551;28;20229;-76
2022/01/09 04:07:03;;;;;;;110.65;56.28;;;;;;;-2.36;100.00;97815.97;2104328;28;20251;-76
2022/01/09 04:08:05;;;;;;;121.15;57.80;;;;;;;-2.35;100.00;97816.78;2104921;28;20218;-76
2022/01/09 04:09:08;;;;;;;121.22;59.70;;;;;;;-2.39;100.00;97810.47;2105672;28;20577;-76
2022/01/09 04:10:12;;;;;;;113.72;56.90;;;;;;;-2.37;100.00;97811.00;2104207;28;20233;-75
2022/01/09 04:11:16;;;;;;;121.15;56.47;;;;;;;-2.39;100.00;97811.25;2096758;28;20237;-75
2022/01/09 04:12:32;;;;;;;115.60;56.17;;;;;;;-2.39;100.00;97803.44;2105091;28;20217;-75
2022/01/09 04:13:38;;;;;;;116.22;56.58;;;;;;;-2.37;100.00;97805.78;2104329;28;20742;-76
2022/01/09 04:14:39;;;;;;;124.68;59.05;;;;;;;-2.39;100.00;97806.03;2096605;28;20728;-76
2022/01/09 04:15:45;;;;;;;127.20;60.90;;;;;;;-2.39;100.00;97807.84;2096342;28;20633;-75
2022/01/09 04:16:46;;;;;;;120.50;61.72;;;;;;;-2.41;100.00;97800.28;2104960;28;20670;-76
2022/01/09 04:17:51;;;;;;;125.13;61.20;;;;;;;-2.40;100.00;97796.63;2104214;28;20225;-75
2022/01/09 04:18:53;;;;;;;124.75;62.42;;;;;;;-2.41;100.00;97794.25;2104674;28;20252;-76
2022/01/09 04:19:57;;;;;;;124.70;62.95;;;;;;;-2.38;100.00;97793.75;2105669;28;20220;-76
2022/01/09 04:20:59;;;;;;;139.15;66.35;;;;;;;-2.40;100.00;97798.44;2104751;28;20229;-75
2022/01/09 04:22:00;;;;;;;136.87;65.83;;;;;;;-2.39;100.00;97797.41;2104867;28;20256;-76
2022/01/09 04:23:01;;;;;;;127.40;63.80;;;;;;;-2.36;100.00;97791.69;2105572;28;20694;-75
2022/01/09 04:24:03;;;;;;;122.57;62.90;;;;;;;-2.37;100.00;97790.13;2104822;28;20686;-76
2022/01/09 04:25:06;;;;;;;142.07;63.10;;;;;;;-2.38;100.00;97794.56;2104725;28;20233;-76
2022/01/09 04:26:10;;;;;;;122.30;61.10;;;;;;;-2.42;100.00;97798.69;2104378;28;20251;-76
2022/01/09 04:27:11;;;;;;;124.10;59.55;;;;;;;-2.49;100.00;97790.25;2104911;28;20225;-76
2022/01/09 04:28:14;;;;;;;128.80;61.63;;;;;;;-2.51;100.00;97794.94;2105677;28;20263;-76
2022/01/09 04:29:14;;;;;;;117.70;58.88;;;;;;;-2.51;100.00;97801.97;2105546;28;20555;-75
2022/01/09 04:30:16;;;;;;;122.57;60.23;;;;;;;-2.57;100.00;97801.91;2104677;28;20309;-76
2022/01/09 04:31:18;;;;;;;118.82;60.75;;;;;;;-2.61;100.00;97795.59;2104819;28;20213;-76
2022/01/09 04:32:20;;;;;;;130.55;66.07;;;;;;;-2.61;100.00;97800.81;2105515;28;20243;-76
2022/01/09 04:33:22;;;;;;;133.57;67.20;;;;;;;-2.63;100.00;97802.84;2104651;28;20222;-76
2022/01/09 04:34:23;;;;;;;130.85;65.20;;;;;;;-2.66;100.00;97800.75;2104506;28;20322;-76
2022/01/09 04:35:25;;;;;;;135.82;65.57;;;;;;;-2.68;100.00;97810.63;2104168;28;20256;-76
2022/01/09 04:36:27;;;;;;;132.68;66.38;;;;;;;-2.70;100.00;97806.66;2104519;28;20224;-76
2022/01/09 04:37:28;;;;;;;136.43;66.22;;;;;;;-2.69;100.00;97813.50;2105113;28;20221;-76
2022/01/09 04:38:32;;;;;;;136.40;67.68;;;;;;;-2.72;100.00;97809.53;2104909;28;20649;-76
2022/01/09 04:39:33;;;;;;;132.10;66.75;;;;;;;-2.71;100.00;97802.47;2105451;28;20273;-76
2022/01/09 04:40:37;;;;;;;135.43;65.63;;;;;;;-2.74;100.00;97806.38;2104565;28;20225;-76
2022/01/09 04:41:42;;;;;;;143.93;66.47;;;;;;;-2.73;100.00;97809.78;2096202;28;20448;-76
2022/01/09 04:42:47;;;;;;;130.27;65.00;;;;;;;-2.76;100.00;97802.44;2104863;28;20221;-75